Hlavní strana
METAR-TAF:

METAR-TAF

Letiště :

Columbus, Indiana, Spojené státy americké

zeměpisná šířka: 39-16N, zeměpisná délka: 085-54W, výška: 200 m

Aktuální stav počasí

Zpráva byla vytvořena před 27 minutami, v 21:51 UTC
Severní vítr 9 kt
Teplota 7°C
Vlhkost vzduchu 49%
Tlak 1027 hPa
Viditelnost: 16.1 km
Skoro jasno ve výšce 6000 ft
Polojasno ve výšce 15000 ft

METAR: KBAK 252151Z 35009KT 10SM FEW060 SCT150 07/M03 A3033

Čas: 17:18 (22:18 UTC)


TAF: chybějící

Stav a předpovědi počasí z více než 4 000 letišť (zprávy METAR a TAF).

Červené a žluté tečky na mapě představují dostupné meteorologické stanice.

Když kurzor umístíte na tečku, zobrazí se název stanice.

Pak kliknutím zobrazíte stav a předpověď počasí.

Chcete-li změnit mapu, kliknutím na zelené tlačítko se znaménkem +mapu přiblížíte, kliknutím na zelené tlačítko se znaménkem – mapu oddálíte a kliknutím na zelené šipky přejdete na sousední mapy.


METAR-TAF: